Historyczne dane pomiarowe

Dodano dane terminowe – wersja testowa.

Dane z okresu 1951-2019

Wersja bazy: 1.34 [2019-03-16, lista zmian], aktualizacja planowana na 2019-04-15

Dane meteo z obszaru Polski uzyskane na podstawie danych udostępnionych przez Instytut Meteorologii i Gospodarki Wodnej – Państwowy Instytut Badawczy.

 

Wybierz Datę:    

       

TemperaturaWilgotnośćWiatrCiśnienieOpadyŚniegCzas trwania zjawisk
 Stacja t tx tn tng RH VA  wxwx mslp ppp RRR   cm mm wxwxwxwxwxwxwx
1999-08-14 16.4 23.5 9.8- 58.8- 3.0 0.7---- 0.0------------
1999-08-13 15.8 21.3 11.8- 66.0- 6.3 1.0---- 0.0------------
1999-08-12 16.0 21.1 11.6- 65.8- 6.7 1.7---- 0.0------------
1999-08-11 19.4 25.3 16.1- 75.3- 5.0 0.7---- 0.2------------
1999-08-10 21.0 24.5 16.5- 75.8- 6.3 3.3---- 0.9------------
1999-08-09 22.5 28.7 18.1- 78.0- 6.0 0.7---- 1.6------------
1999-08-08 23.8 30.8 18.1- 66.5- 3.3 1.0---- 0.0------------
1999-08-07 21.3 30.8 14.2- 70.0- 6.3 0.0---- 1.9------------
1999-08-06 22.2 28.9 15.7- 65.5- 3.3 1.0---- 0.0------------
1999-08-05 20.1 28.4 11.8- 58.3- 4.3 0.7---- 0.0------------
1999-08-04 19.6 27.4 11.6- 58.3- 1.3 0.0---- 0.0------------
1999-08-03 18.5 26.9 9.2- 56.8- 2.7 0.7---- 0.0------------
1999-08-02 18.9 26.9 10.6- 58.8- 4.7 0.7---- 0.0------------
1999-08-01 19.0 26.9 10.3- 54.0- 3.7 1.7---- 0.0------------
1999-07-31 19.3 27.5 10.3- 55.5- 2.7 1.0---- 0.0------------
1999-07-30 18.5 26.4 10.3- 61.8- 2.7 1.0---- 0.0------------
1999-07-29 18.4 25.4 11.8- 65.5- 4.7 1.3---- 0.0------------
1999-07-28 18.3 25.0 11.0- 59.5- 2.0 1.7---- 0.0------------
1999-07-27 18.7 25.9 14.3- 69.5- 6.0 2.3---- 0.0------------
1999-07-26 20.1 29.3 10.2- 65.5- 3.3 1.0---- 0.0------------
1999-07-25 18.6 26.9 10.2- 68.8- 4.3 0.0---- 0.0------------
1999-07-24 17.3 22.4 13.3- 69.3- 5.7 0.7---- 0.0------------
1999-07-23 16.2 21.5 13.4- 74.5- 7.0 1.7---- 0.4------------
1999-07-22 19.3 25.4 15.3- 63.3- 5.7 0.7---- 0.0------------
1999-07-21 23.1 29.3 18.8- 65.8- 5.3 1.0---- 5.0------------
1999-07-20 24.1 31.4 17.1- 55.5- 2.3 0.0---- 0.0------------
1999-07-19 22.8 29.8 14.1- 56.0- 2.3 0.0---- 0.0------------
1999-07-18 21.4 28.9 13.7- 59.8- 1.0 0.0---- 0.0------------
1999-07-17 18.1 25.4 10.3- 68.5- 2.7 0.0---- 0.0------------
1999-07-16 17.3 22.8 11.2- 65.5- 3.7 0.0---- 0.0------------
1999-07-15 16.3 21.5 13.9- 75.3- 6.7 1.7---- 1.1------------
1999-07-14 20.2 25.4 17.4- 82.0- 6.0 2.7---- 1.8------------
1999-07-13 21.9 26.9 16.1- 81.3- 4.7 0.7---- 3.3------------
1999-07-12 21.5 27.4 16.7- 85.0- 4.7 0.0---- 0.0------------
1999-07-11 19.9 24.0 16.7- 77.0- 6.3 1.3---- 8.2------------
1999-07-10 20.7 25.9 16.3- 71.5- 5.3 3.3---- 0.0------------
1999-07-09 17.4 19.6 14.7- 93.0- 8.0 1.0---- 0.6------------
1999-07-08 15.9 18.0 14.8- 90.0- 8.0 2.7---- 5.2------------
1999-07-07 18.5 23.5 16.2- 90.8- 8.0 1.3---- 6.2------------
1999-07-06 23.5 29.6 19.6- 77.3- 5.0 0.7---- 39.1------------
1999-07-05 24.5 30.0 17.8- 60.3- 1.3 3.3---- 0.0------------
1999-07-04 24.5 32.3 16.2- 56.8- 2.0 1.0---- 0.0------------
1999-07-03 20.1 26.5 12.3- 67.8- 1.0 1.3---- 0.0------------
1999-07-02 19.1 24.0 13.7- 80.5- 5.7 0.0---- 1.3------------
1999-07-01 19.6 23.6 16.1- 85.3- 6.7 0.0---- 11.6------------
1999-06-30 19.1 26.7 12.0- 71.5- 4.7 0.0---- 0.0------------
1999-06-29 18.4 23.2 11.7- 61.3- 3.3 0.0---- 0.0------------
1999-06-28 19.7 26.9 14.9- 77.8- 5.3 1.0---- 5.1------------
1999-06-27 19.9 23.8 15.2- 63.0- 6.7 1.0---- 0.2------------
1999-06-26 15.2 22.0 8.5- 78.8- 3.0 0.7---- 0.7------------
1999-06-25 13.7 19.1 9.3- 73.0- 6.7 0.0---- 0.3------------
1999-06-24 11.9 18.6 5.9- 75.0- 5.3 0.0---- 0.4------------
1999-06-23 13.3 17.5 9.7- 67.5- 5.7 2.0---- 0.0------------
1999-06-22 10.7 14.0 9.1- 88.0- 8.0 4.3---- 11.5------------
1999-06-21 15.8 22.0 11.5- 81.5- 7.3 1.3---- 8.3------------
1999-06-20 17.1 23.5 9.8- 80.0- 4.0 0.7---- 0.0------------
1999-06-19 15.8 21.1 11.8- 83.3- 6.0 1.3---- 0.0------------
1999-06-18 15.6 21.5 12.2- 88.8- 7.7 1.3---- 19.4------------
1999-06-17 18.6 23.5 14.7- 81.5- 6.7 0.0---- 0.0------------
1999-06-16 17.8 22.5 14.6- 80.8- 7.3 0.0---- 0.0------------
238.0 ms

 

Źródłem pochodzenia danych jest Instytut Meteorologii i Gospodarki Wodnej – Państwowy Instytut Badawczy. Dane Instytutu Meteorologii i Gospodarki Wodnej – Państwowego Instytutu Badawczego zostały przetworzone.

Dane źródłowe można odnaleźć na stronie https://dane.imgw.pl